createdAt,value
2018-05-06T00:01:09.490Z,12.90
2018-05-06T00:03:12.926Z,12.90
2018-05-06T00:05:15.584Z,12.80
2018-05-06T00:07:18.283Z,12.80
2018-05-06T00:09:20.971Z,12.60
2018-05-06T00:11:23.696Z,12.40
2018-05-06T00:13:27.141Z,12.30
2018-05-06T00:15:29.840Z,12.20
2018-05-06T00:17:32.550Z,12.10
2018-05-06T00:19:36.055Z,12.10
2018-05-06T00:21:38.722Z,12.10
2018-05-06T00:23:42.229Z,12.00
2018-05-06T00:25:44.928Z,12.10
2018-05-06T00:27:47.642Z,11.90
2018-05-06T00:29:50.522Z,11.80
2018-05-06T00:31:53.236Z,11.80
2018-05-06T00:33:55.923Z,11.70
2018-05-06T00:35:58.592Z,11.60
2018-05-06T00:38:01.301Z,11.80
2018-05-06T00:40:03.999Z,11.90
2018-05-06T00:42:06.681Z,11.90
2018-05-06T00:44:09.372Z,12.10
2018-05-06T00:46:12.823Z,12.10
2018-05-06T00:48:15.528Z,12.10
2018-05-06T00:50:18.428Z,12.10
2018-05-06T00:52:21.906Z,11.90
2018-05-06T00:54:36.594Z,11.90
2018-05-06T00:56:39.330Z,11.90
2018-05-06T00:58:42.032Z,12.00
2018-05-06T01:00:44.695Z,12.10
2018-05-06T01:02:47.370Z,12.10
2018-05-06T01:04:50.082Z,11.90
2018-05-06T01:06:52.770Z,11.90
2018-05-06T01:08:55.541Z,11.90
2018-05-06T01:10:58.226Z,12.00
2018-05-06T01:13:00.887Z,12.10
2018-05-06T01:15:04.424Z,12.00
2018-05-06T01:17:07.108Z,11.90
2018-05-06T01:19:09.816Z,12.10
2018-05-06T01:21:12.499Z,12.00
2018-05-06T01:23:15.964Z,12.10
2018-05-06T01:25:18.699Z,12.10
2018-05-06T01:27:21.397Z,12.00
2018-05-06T01:29:24.193Z,12.10
2018-05-06T01:31:26.906Z,12.20
2018-05-06T01:33:30.371Z,12.10
2018-05-06T01:35:33.079Z,12.00
2018-05-06T01:37:36.534Z,11.90
2018-05-06T01:39:39.238Z,11.90
2018-05-06T01:41:41.951Z,11.90
2018-05-06T01:43:44.693Z,11.90
2018-05-06T01:45:47.392Z,11.80
2018-05-06T01:47:50.085Z,11.80
2018-05-06T01:49:52.777Z,11.90
2018-05-06T01:51:55.490Z,11.80
2018-05-06T01:53:58.168Z,11.70
2018-05-06T01:56:00.901Z,11.60
2018-05-06T01:58:03.596Z,11.50
2018-05-06T02:00:06.298Z,11.50
2018-05-06T02:02:08.978Z,11.40
2018-05-06T02:04:11.642Z,11.30
2018-05-06T02:06:14.376Z,11.10
2018-05-06T02:08:17.216Z,11.20
2018-05-06T02:10:19.983Z,11.20
2018-05-06T02:12:22.719Z,11.20
2018-05-06T02:14:25.401Z,11.20
2018-05-06T02:16:28.121Z,11.00
2018-05-06T02:18:30.954Z,10.80
2018-05-06T02:20:33.610Z,10.80
2018-05-06T02:22:36.307Z,10.70
2018-05-06T02:24:39.009Z,10.80
2018-05-06T02:26:41.703Z,10.80
2018-05-06T02:28:44.439Z,10.80
2018-05-06T02:30:47.138Z,10.70
2018-05-06T02:32:49.826Z,10.60
2018-05-06T02:34:52.518Z,10.50
2018-05-06T02:36:55.208Z,10.30
2018-05-06T02:38:58.695Z,10.10
2018-05-06T02:41:02.145Z,10.00
2018-05-06T02:43:04.848Z,10.00
2018-05-06T02:45:07.545Z,10.10
2018-05-06T02:47:10.996Z,10.00
2018-05-06T02:49:13.718Z,10.00
2018-05-06T02:51:17.154Z,10.20
2018-05-06T02:53:19.878Z,10.20
2018-05-06T02:55:22.544Z,10.40
2018-05-06T02:57:25.249Z,10.30
2018-05-06T02:59:28.782Z,10.30
2018-05-06T03:01:31.447Z,10.30
2018-05-06T03:03:34.156Z,10.30
2018-05-06T03:05:36.870Z,10.20
2018-05-06T03:07:40.331Z,10.00
2018-05-06T03:09:43.046Z,9.90
2018-05-06T03:11:46.498Z,9.70
2018-05-06T03:13:49.458Z,9.60
2018-05-06T03:15:52.125Z,9.60
2018-05-06T03:17:54.808Z,9.30
2018-05-06T03:19:57.507Z,9.30
2018-05-06T03:22:00.216Z,9.30
2018-05-06T03:24:02.931Z,9.40
2018-05-06T03:26:05.612Z,9.40
2018-05-06T03:28:08.295Z,9.40
2018-05-06T03:30:11.060Z,9.30
2018-05-06T03:32:13.725Z,9.30
2018-05-06T03:34:17.153Z,9.20
2018-05-06T03:36:19.860Z,9.20
2018-05-06T03:38:22.549Z,9.30
2018-05-06T03:40:25.256Z,9.30
2018-05-06T03:42:27.936Z,9.20
2018-05-06T03:44:30.628Z,9.20
2018-05-06T03:46:33.375Z,9.20
2018-05-06T03:48:36.818Z,9.10
2018-05-06T03:50:39.526Z,9.00
2018-05-06T03:52:42.219Z,9.10
2018-05-06T03:54:45.676Z,9.20
2018-05-06T03:57:01.184Z,9.10
2018-05-06T03:59:16.553Z,9.50
2018-05-06T04:01:20.043Z,9.70
2018-05-06T04:03:22.720Z,9.70
2018-05-06T04:05:25.391Z,9.70
2018-05-06T04:07:28.093Z,9.70
2018-05-06T04:09:31.934Z,9.70
2018-05-06T04:11:34.702Z,9.70
2018-05-06T04:13:37.396Z,9.60
2018-05-06T04:15:40.868Z,9.70
2018-05-06T04:17:43.563Z,9.70
2018-05-06T04:19:46.268Z,9.80
2018-05-06T04:21:48.957Z,9.80
2018-05-06T04:23:51.746Z,9.80
2018-05-06T04:25:55.187Z,10.00
2018-05-06T04:27:57.988Z,10.00
2018-05-06T04:30:00.872Z,10.00
2018-05-06T04:32:03.545Z,9.90
2018-05-06T04:34:06.271Z,9.90
2018-05-06T04:36:08.962Z,9.80
2018-05-06T04:38:11.665Z,9.70
2018-05-06T04:40:14.344Z,9.60
2018-05-06T04:42:17.051Z,9.60
2018-05-06T04:44:19.727Z,9.60
2018-05-06T04:46:23.158Z,9.70
2018-05-06T04:48:25.853Z,9.70
2018-05-06T04:50:28.522Z,9.70
2018-05-06T04:52:31.222Z,9.80
2018-05-06T04:54:33.895Z,9.90
2018-05-06T04:56:36.713Z,10.00
2018-05-06T04:58:39.454Z,10.20
2018-05-06T05:00:42.149Z,10.30
2018-05-06T05:02:47.311Z,10.50
2018-05-06T05:04:50.088Z,10.80
2018-05-06T05:06:53.648Z,11.70
2018-05-06T05:08:56.402Z,11.70
2018-05-06T05:11:00.211Z,12.00
2018-05-06T05:13:02.912Z,12.30
2018-05-06T05:15:05.664Z,12.20
2018-05-06T05:17:08.354Z,12.20
2018-05-06T05:19:11.017Z,12.50
2018-05-06T05:21:13.737Z,12.70
2018-05-06T05:23:17.202Z,12.70
2018-05-06T05:25:19.899Z,12.70
2018-05-06T05:27:22.592Z,12.80
2018-05-06T05:29:26.160Z,12.90
2018-05-06T05:31:28.911Z,12.90
2018-05-06T05:33:31.739Z,13.00
2018-05-06T05:35:34.493Z,13.10
2018-05-06T05:37:37.190Z,13.20
2018-05-06T05:39:39.924Z,13.40
2018-05-06T05:41:42.659Z,13.40
2018-05-06T05:43:46.111Z,13.20
2018-05-06T05:45:49.938Z,13.10
2018-05-06T05:47:52.657Z,13.50
2018-05-06T05:49:55.360Z,13.90
2018-05-06T05:51:58.308Z,14.40
2018-05-06T05:54:00.982Z,14.90
2018-05-06T05:56:04.561Z,14.80
2018-05-06T05:58:08.027Z,15.00
2018-05-06T06:00:10.732Z,15.00
2018-05-06T06:02:14.343Z,15.60
2018-05-06T06:04:17.796Z,15.80
2018-05-06T06:06:20.704Z,15.70
2018-05-06T06:08:24.197Z,15.20
2018-05-06T06:10:27.661Z,16.00
2018-05-06T06:12:30.426Z,16.00
2018-05-06T06:14:33.146Z,16.90
2018-05-06T06:16:35.973Z,16.90
2018-05-06T06:18:38.695Z,16.30
2018-05-06T06:20:41.584Z,15.90
2018-05-06T06:22:44.294Z,16.70
2018-05-06T06:24:46.996Z,16.90
2018-05-06T06:26:49.699Z,17.60
2018-05-06T06:28:52.377Z,17.60
2018-05-06T06:30:55.079Z,18.00
2018-05-06T06:32:58.615Z,18.00
2018-05-06T06:35:01.347Z,18.00
2018-05-06T06:37:04.015Z,18.10
2018-05-06T06:39:06.736Z,17.70
2018-05-06T06:41:09.434Z,18.70
2018-05-06T06:43:12.098Z,20.00
2018-05-06T06:45:15.567Z,20.30
2018-05-06T06:47:18.790Z,20.40
2018-05-06T06:49:21.502Z,21.50
2018-05-06T06:51:24.221Z,20.50
2018-05-06T06:53:27.376Z,20.50
2018-05-06T06:55:30.107Z,21.40
2018-05-06T06:57:32.807Z,21.40
2018-05-06T06:59:35.536Z,22.10
2018-05-06T07:01:38.251Z,21.50
2018-05-06T07:03:40.958Z,20.30
2018-05-06T07:05:43.636Z,21.30
2018-05-06T07:07:46.345Z,22.40
2018-05-06T07:09:49.102Z,21.50
2018-05-06T07:11:52.570Z,22.50
2018-05-06T07:13:55.316Z,22.40
2018-05-06T07:15:58.034Z,22.50
2018-05-06T07:18:00.736Z,22.10
2018-05-06T07:20:04.174Z,23.10
2018-05-06T07:22:06.887Z,23.00
2018-05-06T07:24:13.933Z,22.60
2018-05-06T07:26:16.652Z,22.20
2018-05-06T07:28:20.187Z,23.30
2018-05-06T07:30:22.833Z,23.30
2018-05-06T07:32:25.557Z,24.80
2018-05-06T07:34:28.248Z,24.80
2018-05-06T07:36:30.972Z,24.30
2018-05-06T07:38:33.707Z,24.90
2018-05-06T07:40:36.374Z,25.80
2018-05-06T07:42:39.083Z,25.20
2018-05-06T07:44:42.571Z,24.70
2018-05-06T07:46:46.071Z,22.40
2018-05-06T07:48:48.765Z,22.30
2018-05-06T07:50:51.490Z,21.30
2018-05-06T07:52:54.178Z,22.40
2018-05-06T07:54:56.862Z,22.60
2018-05-06T07:56:59.584Z,22.60
2018-05-06T07:59:02.263Z,23.10
2018-05-06T08:01:04.916Z,23.00
2018-05-06T08:03:07.634Z,22.40
2018-05-06T08:05:11.156Z,23.40
2018-05-06T08:07:14.615Z,24.30
2018-05-06T08:09:17.344Z,24.30
2018-05-06T08:11:20.085Z,25.20
2018-05-06T08:13:22.792Z,23.60
2018-05-06T08:15:27.379Z,23.50
2018-05-06T08:17:30.096Z,23.40
2018-05-06T08:19:32.766Z,23.40
2018-05-06T08:21:35.574Z,23.50
2018-05-06T08:23:38.304Z,23.30
2018-05-06T08:25:41.071Z,23.90
2018-05-06T08:27:43.772Z,26.20
2018-05-06T08:29:47.272Z,27.80
2018-05-06T08:31:50.744Z,26.50
2018-05-06T08:33:53.454Z,26.50
2018-05-06T08:35:56.256Z,27.00
2018-05-06T08:37:58.948Z,29.20
2018-05-06T08:40:01.621Z,28.50
2018-05-06T08:42:04.375Z,28.40
2018-05-06T08:44:07.083Z,27.80
2018-05-06T08:46:09.846Z,27.60
2018-05-06T08:48:12.719Z,31.50
2018-05-06T08:50:15.487Z,33.50
2018-05-06T08:52:18.212Z,30.50
2018-05-06T08:54:20.928Z,31.90
2018-05-06T08:56:23.638Z,32.60
2018-05-06T08:58:26.388Z,31.50
2018-05-06T09:00:29.093Z,29.10
2018-05-06T09:02:31.805Z,31.50
2018-05-06T09:04:35.279Z,31.50
2018-05-06T09:06:37.953Z,31.50
2018-05-06T09:08:40.666Z,31.90
2018-05-06T09:10:43.379Z,32.30
2018-05-06T09:12:46.060Z,31.70
2018-05-06T09:14:49.544Z,31.70
2018-05-06T09:16:52.232Z,31.60
2018-05-06T09:18:54.931Z,29.60
2018-05-06T09:20:57.639Z,30.40
2018-05-06T09:23:00.328Z,31.40
2018-05-06T09:25:03.056Z,29.70
2018-05-06T09:27:05.725Z,30.90
2018-05-06T09:29:08.442Z,30.20
2018-05-06T09:31:11.969Z,30.70
2018-05-06T09:33:14.656Z,30.60
2018-05-06T09:35:17.369Z,30.50
2018-05-06T09:37:20.049Z,31.80
2018-05-06T09:39:22.749Z,31.60
2018-05-06T09:41:26.192Z,32.50
2018-05-06T09:43:28.919Z,32.50
2018-05-06T09:45:32.408Z,33.40
2018-05-06T09:47:35.960Z,31.50
2018-05-06T09:49:39.388Z,31.50
2018-05-06T09:51:42.897Z,32.40
2018-05-06T09:53:46.414Z,31.30
2018-05-06T09:55:49.144Z,31.30
2018-05-06T09:57:51.851Z,30.40
2018-05-06T09:59:55.325Z,28.20
2018-05-06T10:01:58.079Z,28.10
2018-05-06T10:04:00.786Z,28.60
2018-05-06T10:06:04.252Z,27.30
2018-05-06T10:08:06.972Z,27.30
2018-05-06T10:10:10.440Z,25.50
2018-05-06T10:12:13.145Z,25.40
2018-05-06T10:14:16.641Z,26.70
2018-05-06T10:16:21.469Z,26.90
2018-05-06T10:21:02.138Z,26.50
2018-05-06T10:23:04.849Z,26.40
2018-05-06T10:25:07.555Z,28.00
2018-05-06T10:27:10.291Z,28.60
2018-05-06T10:29:12.957Z,28.00
2018-05-06T10:31:15.663Z,29.10
2018-05-06T10:33:19.154Z,30.40
2018-05-06T10:35:22.602Z,29.70
2018-05-06T10:37:26.072Z,30.30
2018-05-06T10:39:28.777Z,30.30
2018-05-06T10:41:31.470Z,29.70
2018-05-06T10:43:34.214Z,27.30
2018-05-06T10:45:36.944Z,25.70
2018-05-06T10:47:39.722Z,26.10
2018-05-06T10:49:42.459Z,25.50
2018-05-06T10:51:45.929Z,25.90
2018-05-06T10:53:48.606Z,25.80
2018-05-06T10:55:51.274Z,24.80
2018-05-06T10:57:54.048Z,24.60
2018-05-06T10:59:56.926Z,24.90
2018-05-06T11:01:59.613Z,25.00
2018-05-06T11:04:02.358Z,25.50
2018-05-06T11:06:05.802Z,24.90
2018-05-06T11:08:08.493Z,24.90
2018-05-06T11:10:12.017Z,25.40
2018-05-06T11:12:14.708Z,25.40
2018-05-06T11:14:17.422Z,25.30
2018-05-06T11:16:20.115Z,25.60
2018-05-06T11:18:22.824Z,25.80
2018-05-06T11:20:25.519Z,26.10
2018-05-06T11:22:28.224Z,25.70
2018-05-06T11:24:30.912Z,25.70
2018-05-06T11:26:33.639Z,25.60
2018-05-06T11:28:36.339Z,25.80
2018-05-06T11:30:39.162Z,25.10
2018-05-06T11:32:42.612Z,24.80
2018-05-06T11:34:45.292Z,24.80
2018-05-06T11:36:48.008Z,25.50
2018-05-06T11:38:51.465Z,25.60
2018-05-06T11:40:55.007Z,25.20
2018-05-06T11:42:57.659Z,25.20
2018-05-06T11:45:00.355Z,25.10
2018-05-06T11:47:03.853Z,25.40
2018-05-06T11:49:07.316Z,25.40
2018-05-06T11:51:10.042Z,25.30
2018-05-06T11:53:12.724Z,25.10
2018-05-06T11:55:15.476Z,24.80
2018-05-06T11:57:18.937Z,25.90
2018-05-06T11:59:21.635Z,25.90
2018-05-06T12:01:24.355Z,25.90
2018-05-06T12:03:27.055Z,25.80
2018-05-06T12:05:29.758Z,25.40
2018-05-06T12:07:32.442Z,25.40
2018-05-06T12:09:35.129Z,25.40
2018-05-06T12:11:38.576Z,25.90
2018-05-06T12:13:41.344Z,25.90
2018-05-06T12:15:44.052Z,26.10
2018-05-06T12:17:46.729Z,26.30
2018-05-06T12:19:49.463Z,26.00
2018-05-06T12:21:52.222Z,26.00
2018-05-06T12:23:54.951Z,26.10
2018-05-06T12:25:57.704Z,25.70
2018-05-06T12:28:00.485Z,26.10
2018-05-06T12:30:03.216Z,26.10
2018-05-06T12:32:06.690Z,25.70
2018-05-06T12:34:09.371Z,25.70
2018-05-06T12:36:12.050Z,25.50
2018-05-06T12:38:14.722Z,25.40
2018-05-06T12:40:17.411Z,25.30
2018-05-06T12:42:22.129Z,25.50
2018-05-06T12:44:24.848Z,25.70
2018-05-06T12:46:27.516Z,25.90
2018-05-06T12:48:30.965Z,25.70
2018-05-06T12:50:33.659Z,25.70
2018-05-06T12:52:36.344Z,25.50
2018-05-06T12:54:39.051Z,25.70
2018-05-06T12:56:41.758Z,25.80
2018-05-06T12:58:44.488Z,25.80
2018-05-06T13:00:47.944Z,25.70
2018-05-06T13:02:50.696Z,25.70
2018-05-06T13:04:53.470Z,25.40
2018-05-06T13:06:56.878Z,26.00
2018-05-06T13:08:59.683Z,26.00
2018-05-06T13:11:02.354Z,26.40
2018-05-06T13:13:05.076Z,26.00
2018-05-06T13:15:07.758Z,25.80
2018-05-06T13:17:10.466Z,25.70
2018-05-06T13:19:13.158Z,25.90
2018-05-06T13:21:17.011Z,25.80
2018-05-06T13:23:21.459Z,26.10
2018-05-06T13:25:25.274Z,26.20
2018-05-06T13:27:36.201Z,26.10
2018-05-06T13:29:42.002Z,25.90
2018-05-06T13:31:45.208Z,26.10
2018-05-06T13:33:49.338Z,26.20
2018-05-06T13:35:52.051Z,26.10
2018-05-06T13:37:56.003Z,26.00
2018-05-06T13:40:14.496Z,25.90
2018-05-06T13:42:17.224Z,25.90
2018-05-06T13:44:19.944Z,25.90
2018-05-06T13:46:22.636Z,25.90
2018-05-06T13:48:25.349Z,25.90
2018-05-06T13:50:28.784Z,26.00
2018-05-06T13:52:31.500Z,26.00
2018-05-06T13:54:34.228Z,26.00
2018-05-06T13:56:36.934Z,26.00
2018-05-06T13:58:40.693Z,26.00
2018-05-06T14:00:43.440Z,26.00
2018-05-06T14:02:46.130Z,25.90
2018-05-06T14:04:49.610Z,26.30
2018-05-06T14:06:52.547Z,26.30
2018-05-06T14:08:55.249Z,26.00
2018-05-06T14:10:57.942Z,26.10
2018-05-06T14:13:00.728Z,26.10
2018-05-06T14:15:04.195Z,26.00
2018-05-06T14:17:07.012Z,26.00
2018-05-06T14:19:10.123Z,26.00
2018-05-06T14:21:13.300Z,25.90
2018-05-06T14:23:16.451Z,26.00
2018-05-06T14:25:19.580Z,26.20
2018-05-06T14:27:22.389Z,26.10
2018-05-06T14:29:25.079Z,26.20
2018-05-06T14:31:27.804Z,26.20
2018-05-06T14:33:30.501Z,26.20
2018-05-06T14:35:33.207Z,26.00
2018-05-06T14:37:37.557Z,25.90
2018-05-06T14:39:41.310Z,25.90
2018-05-06T14:41:44.047Z,25.90
2018-05-06T14:43:46.909Z,26.00
2018-05-06T14:45:49.671Z,26.10
2018-05-06T14:48:04.464Z,25.90
2018-05-06T14:50:08.090Z,26.10
2018-05-06T14:52:10.863Z,26.10
2018-05-06T14:54:13.765Z,26.10
2018-05-06T14:56:16.479Z,26.10
2018-05-06T14:58:19.188Z,26.00
2018-05-06T15:00:21.917Z,25.90
2018-05-06T15:02:24.620Z,26.00
2018-05-06T15:04:28.114Z,26.00
2018-05-06T15:06:31.584Z,25.90
2018-05-06T15:08:34.275Z,25.90
2018-05-06T15:10:37.094Z,25.90
2018-05-06T15:12:40.592Z,25.90
2018-05-06T15:14:43.412Z,25.90
2018-05-06T15:16:46.103Z,26.00
2018-05-06T15:18:48.792Z,26.10
2018-05-06T15:20:52.383Z,25.90
2018-05-06T15:22:55.082Z,25.90
2018-05-06T15:24:57.786Z,26.20
2018-05-06T15:27:00.551Z,26.10
2018-05-06T15:29:03.281Z,26.10
2018-05-06T15:31:05.959Z,26.10
2018-05-06T15:33:08.669Z,26.30
2018-05-06T15:35:11.387Z,26.30
2018-05-06T15:37:14.099Z,26.30
2018-05-06T15:39:16.810Z,26.10
2018-05-06T15:41:19.554Z,26.20
2018-05-06T15:43:22.233Z,26.00
2018-05-06T15:45:24.976Z,26.10
2018-05-06T15:47:27.657Z,26.10
2018-05-06T15:49:30.387Z,26.20
2018-05-06T15:51:33.435Z,26.20
2018-05-06T15:53:36.184Z,26.30
2018-05-06T15:55:38.885Z,26.10
2018-05-06T15:57:41.629Z,26.00
2018-05-06T15:59:44.313Z,26.10
2018-05-06T16:01:58.920Z,26.00
2018-05-06T16:04:13.732Z,26.00
2018-05-06T16:06:16.429Z,26.10
2018-05-06T16:08:19.156Z,26.20
2018-05-06T16:10:21.868Z,25.90
2018-05-06T16:12:24.714Z,25.90
2018-05-06T16:14:27.509Z,25.90
2018-05-06T16:16:30.333Z,25.90
2018-05-06T16:18:33.055Z,25.90
2018-05-06T16:20:35.940Z,25.80
2018-05-06T16:22:38.731Z,25.80
2018-05-06T16:24:41.456Z,25.80
2018-05-06T16:26:44.243Z,25.80
2018-05-06T16:28:46.979Z,25.90
2018-05-06T16:30:50.508Z,25.90
2018-05-06T16:32:53.212Z,25.90
2018-05-06T16:34:56.871Z,25.80
2018-05-06T16:36:59.666Z,25.70
2018-05-06T16:39:02.382Z,25.70
2018-05-06T16:41:05.123Z,25.70
2018-05-06T16:43:07.851Z,25.60
2018-05-06T16:45:10.595Z,25.70
2018-05-06T16:47:13.485Z,25.60
2018-05-06T16:49:16.296Z,25.50
2018-05-06T16:51:19.130Z,25.50
2018-05-06T16:53:21.832Z,25.50
2018-05-06T16:55:24.566Z,25.40
2018-05-06T16:57:27.433Z,25.40
2018-05-06T16:59:30.442Z,25.40
2018-05-06T17:01:33.598Z,25.40
2018-05-06T17:03:39.206Z,25.20
2018-05-06T17:05:41.950Z,25.20
2018-05-06T17:07:44.743Z,25.20
2018-05-06T17:09:47.481Z,25.20
2018-05-06T17:11:51.196Z,25.10
2018-05-06T17:13:53.920Z,25.10
2018-05-06T17:15:56.972Z,25.00
2018-05-06T17:17:59.736Z,25.00
2018-05-06T17:20:12.871Z,24.90
2018-05-06T17:22:15.609Z,24.90
2018-05-06T17:24:19.063Z,24.80
2018-05-06T17:26:21.776Z,24.80
2018-05-06T17:28:25.312Z,24.80
2018-05-06T17:30:28.169Z,24.70
2018-05-06T17:32:32.313Z,24.60
2018-05-06T17:34:35.063Z,24.60
2018-05-06T17:36:37.742Z,24.60
2018-05-06T17:38:40.577Z,24.50
2018-05-06T17:40:44.264Z,24.60
2018-05-06T17:42:47.162Z,24.50
2018-05-06T17:44:50.827Z,24.40
2018-05-06T17:46:53.576Z,24.40
2018-05-06T17:48:56.313Z,24.30
2018-05-06T17:50:59.292Z,24.30
2018-05-06T17:53:03.057Z,24.20
2018-05-06T17:55:05.779Z,24.10
2018-05-06T17:57:08.606Z,24.10
2018-05-06T17:59:11.405Z,24.00
2018-05-06T18:01:14.221Z,24.00
2018-05-06T18:03:17.028Z,23.90
2018-05-06T18:05:20.527Z,23.80
2018-05-06T18:07:23.240Z,23.70
2018-05-06T18:09:26.089Z,23.70
2018-05-06T18:11:29.631Z,23.60
2018-05-06T18:13:33.331Z,23.60
2018-05-06T18:15:36.314Z,23.60
2018-05-06T18:17:39.046Z,23.40
2018-05-06T18:19:41.773Z,23.40
2018-05-06T18:21:45.050Z,23.30
2018-05-06T18:23:47.746Z,23.30
2018-05-06T18:25:51.705Z,23.30
2018-05-06T18:27:54.402Z,23.20
2018-05-06T18:29:57.152Z,23.10
2018-05-06T18:32:00.033Z,23.10
2018-05-06T18:34:02.799Z,23.00
2018-05-06T18:36:06.305Z,22.90
2018-05-06T18:38:09.015Z,22.80
2018-05-06T18:40:11.946Z,22.80
2018-05-06T18:42:15.488Z,22.60
2018-05-06T18:44:18.317Z,22.60
2018-05-06T18:46:21.108Z,22.60
2018-05-06T18:48:24.590Z,22.50
2018-05-06T18:50:27.342Z,22.50
2018-05-06T18:52:30.107Z,22.40
2018-05-06T18:54:35.279Z,22.30
2018-05-06T18:56:38.396Z,22.30
2018-05-06T18:58:41.262Z,22.20
2018-05-06T19:00:45.927Z,22.10
2018-05-06T19:02:48.825Z,22.00
2018-05-06T19:04:52.402Z,22.00
2018-05-06T19:06:56.173Z,21.90
2018-05-06T19:08:59.654Z,21.80
2018-05-06T19:11:02.356Z,21.80
2018-05-06T19:13:05.105Z,21.70
2018-05-06T19:15:07.828Z,21.80
2018-05-06T19:17:10.918Z,21.70
2018-05-06T19:19:13.640Z,21.60
2018-05-06T19:21:16.431Z,21.50
2018-05-06T19:23:19.903Z,21.40
2018-05-06T19:25:22.658Z,21.30
2018-05-06T19:27:25.344Z,21.20
2018-05-06T19:29:28.244Z,21.20
2018-05-06T19:31:31.010Z,21.10
2018-05-06T19:33:33.720Z,21.10
2018-05-06T19:35:37.228Z,21.00
2018-05-06T19:37:39.937Z,21.00
2018-05-06T19:39:43.140Z,20.80
2018-05-06T19:41:46.563Z,20.80
2018-05-06T19:43:49.282Z,20.80
2018-05-06T19:45:52.000Z,20.80
2018-05-06T19:47:54.691Z,20.70
2018-05-06T19:49:57.390Z,20.60
2018-05-06T19:52:00.881Z,20.50
2018-05-06T19:54:04.336Z,20.40
2018-05-06T19:56:07.059Z,20.40
2018-05-06T19:58:10.501Z,20.40
2018-05-06T20:00:13.206Z,20.30
2018-05-06T20:02:16.698Z,20.30
2018-05-06T20:04:21.616Z,20.30
2018-05-06T20:06:26.440Z,20.40
2018-05-06T20:08:29.131Z,20.40
2018-05-06T20:10:31.834Z,20.40
2018-05-06T20:12:35.282Z,20.30
2018-05-06T20:14:38.273Z,20.30
2018-05-06T20:16:41.067Z,20.30
2018-05-06T20:18:43.843Z,20.30
2018-05-06T20:20:47.342Z,20.20
2018-05-06T20:22:50.045Z,20.20
2018-05-06T20:24:53.684Z,20.20
2018-05-06T20:26:56.403Z,20.20
2018-05-06T20:28:59.842Z,20.00
2018-05-06T20:31:02.538Z,19.90
2018-05-06T20:33:05.262Z,20.00
2018-05-06T20:35:08.709Z,19.90
2018-05-06T20:37:12.501Z,19.80
2018-05-06T20:39:15.230Z,19.80
2018-05-06T20:41:18.688Z,19.80
2018-05-06T20:43:21.422Z,19.80
2018-05-06T20:45:24.175Z,19.70
2018-05-06T20:47:27.674Z,19.60
2018-05-06T20:49:31.124Z,19.50
2018-05-06T20:51:33.894Z,19.50
2018-05-06T20:53:36.625Z,19.50
2018-05-06T20:55:40.100Z,19.50
2018-05-06T20:57:44.250Z,19.50
2018-05-06T20:59:47.877Z,19.50
2018-05-06T21:01:50.776Z,19.40
2018-05-06T21:03:53.512Z,19.40
2018-05-06T21:05:56.190Z,19.30
2018-05-06T21:07:58.895Z,19.30
2018-05-06T21:10:01.607Z,19.20
2018-05-06T21:12:04.331Z,19.20
2018-05-06T21:14:07.047Z,19.30
2018-05-06T21:16:09.810Z,19.20
2018-05-06T21:18:12.447Z,19.20
2018-05-06T21:20:15.259Z,19.20
2018-05-06T21:22:17.934Z,19.10
2018-05-06T21:24:20.761Z,19.00
2018-05-06T21:26:23.449Z,18.90
2018-05-06T21:28:26.187Z,18.90
2018-05-06T21:30:28.915Z,18.70
2018-05-06T21:32:31.585Z,18.60
2018-05-06T21:34:34.272Z,18.50
2018-05-06T21:36:36.951Z,18.30
2018-05-06T21:38:39.615Z,18.10
2018-05-06T21:40:42.308Z,17.90
2018-05-06T21:42:44.984Z,17.70
2018-05-06T21:44:47.778Z,17.70
2018-05-06T21:46:50.419Z,17.70
2018-05-06T21:48:53.088Z,17.80
2018-05-06T21:50:55.790Z,17.80
2018-05-06T21:52:58.512Z,17.80
2018-05-06T21:55:01.249Z,17.70
2018-05-06T21:57:04.718Z,17.20
2018-05-06T21:59:07.419Z,17.20
2018-05-06T22:01:16.982Z,17.00
2018-05-06T22:03:19.634Z,16.90
2018-05-06T22:05:23.103Z,16.60
2018-05-06T22:07:25.818Z,16.50
2018-05-06T22:09:29.271Z,16.70
2018-05-06T22:11:31.976Z,16.70
2018-05-06T22:13:35.497Z,16.40
2018-05-06T22:15:38.525Z,16.40
2018-05-06T22:17:41.241Z,16.20
2018-05-06T22:19:43.911Z,16.00
2018-05-06T22:21:47.360Z,15.80
2018-05-06T22:23:50.049Z,15.80
2018-05-06T22:25:52.749Z,15.80
2018-05-06T22:27:56.180Z,15.90
2018-05-06T22:29:59.627Z,15.90
2018-05-06T22:32:02.404Z,15.80
2018-05-06T22:34:05.068Z,15.80
2018-05-06T22:36:08.884Z,15.70
2018-05-06T22:38:12.344Z,15.90
2018-05-06T22:40:15.013Z,15.90
2018-05-06T22:42:17.943Z,16.00
2018-05-06T22:44:21.438Z,15.80
2018-05-06T22:46:24.078Z,15.80
2018-05-06T22:48:26.783Z,15.70
2018-05-06T22:50:30.225Z,15.50
2018-05-06T22:52:32.928Z,15.50
2018-05-06T22:54:50.789Z,15.50
2018-05-06T22:56:54.240Z,15.10
2018-05-06T22:58:56.938Z,15.10
2018-05-06T23:00:59.643Z,15.10
2018-05-06T23:03:02.355Z,15.10
2018-05-06T23:05:05.059Z,15.10
2018-05-06T23:07:07.757Z,15.00
2018-05-06T23:09:11.205Z,14.80
2018-05-06T23:11:13.918Z,14.80
2018-05-06T23:13:16.607Z,14.80
2018-05-06T23:15:20.027Z,14.70
2018-05-06T23:17:22.718Z,14.60
2018-05-06T23:19:25.412Z,14.50
2018-05-06T23:21:28.077Z,14.50
2018-05-06T23:23:30.766Z,14.50
2018-05-06T23:25:33.488Z,14.60
2018-05-06T23:27:36.134Z,14.50
2018-05-06T23:29:38.836Z,14.60
2018-05-06T23:31:41.500Z,14.50
2018-05-06T23:33:44.955Z,14.20
2018-05-06T23:35:47.611Z,14.20
2018-05-06T23:37:50.284Z,14.10
2018-05-06T23:39:52.996Z,14.00
2018-05-06T23:41:55.647Z,14.00
2018-05-06T23:43:58.394Z,14.00
2018-05-06T23:46:01.086Z,14.00
2018-05-06T23:48:03.756Z,13.90
2018-05-06T23:50:06.452Z,14.00
2018-05-06T23:52:09.124Z,14.00
2018-05-06T23:54:11.869Z,13.90
2018-05-06T23:56:14.566Z,13.70
2018-05-06T23:58:17.373Z,13.60
